createdAt,value
2023-01-10T00:00:31.561Z,8
2023-01-10T00:02:14.957Z,9
2023-01-10T00:03:58.347Z,8
2023-01-10T00:07:24.832Z,2
2023-01-10T00:09:08.204Z,2
2023-01-10T00:10:51.612Z,2
2023-01-10T00:12:35.006Z,2
2023-01-10T00:14:18.410Z,1
2023-01-10T00:16:01.786Z,2
2023-01-10T00:17:45.197Z,2
2023-01-10T00:19:28.617Z,1
2023-01-10T00:22:55.061Z,1
2023-01-10T00:24:38.460Z,1
2023-01-10T00:28:05.268Z,1
2023-01-10T00:29:48.655Z,1
2023-01-10T00:31:32.040Z,1
2023-01-10T00:33:15.464Z,2
2023-01-10T00:34:58.860Z,2
2023-01-10T00:36:42.262Z,2
2023-01-10T00:40:08.697Z,1
2023-01-10T00:41:52.100Z,1
2023-01-10T00:43:35.517Z,2
2023-01-10T00:45:18.932Z,2
2023-01-10T00:47:02.343Z,2
2023-01-10T00:48:45.723Z,2
2023-01-10T00:50:29.146Z,2
2023-01-10T00:52:12.520Z,1
2023-01-10T00:53:55.937Z,2
2023-01-10T00:55:39.611Z,2
2023-01-10T00:57:23.034Z,2
2023-01-10T00:59:17.909Z,2
2023-01-10T01:00:49.812Z,1
2023-01-10T01:02:33.197Z,2
2023-01-10T01:04:16.603Z,1
2023-01-10T01:06:00.021Z,1
2023-01-10T01:07:43.365Z,2
2023-01-10T01:09:26.836Z,1
2023-01-10T01:12:53.270Z,2
2023-01-10T01:14:36.632Z,2
2023-01-10T01:16:20.034Z,2
2023-01-10T01:18:03.405Z,2
2023-01-10T01:19:46.839Z,1
2023-01-10T01:21:30.218Z,1
2023-01-10T01:23:13.599Z,2
2023-01-10T01:24:56.981Z,1
2023-01-10T01:26:40.380Z,2
2023-01-10T01:30:06.872Z,2
2023-01-10T01:31:50.269Z,1
2023-01-10T01:33:33.691Z,2
2023-01-10T01:35:17.066Z,2
2023-01-10T01:37:00.483Z,2
2023-01-10T01:38:43.839Z,1
2023-01-10T01:40:27.247Z,2
2023-01-10T01:42:10.647Z,1
2023-01-10T01:43:54.060Z,2
2023-01-10T01:47:20.528Z,2
2023-01-10T01:49:03.898Z,1
2023-01-10T01:50:47.293Z,1
2023-01-10T01:52:30.693Z,2
2023-01-10T01:54:14.092Z,1
2023-01-10T01:55:57.481Z,1
2023-01-10T01:57:40.907Z,1
2023-01-10T01:59:24.292Z,1
2023-01-10T02:01:07.672Z,2
2023-01-10T02:04:34.147Z,1
2023-01-10T02:06:17.539Z,2
2023-01-10T02:08:00.982Z,2
2023-01-10T02:09:44.338Z,2
2023-01-10T02:11:27.738Z,1
2023-01-10T02:13:11.137Z,1
2023-01-10T02:14:54.544Z,2
2023-01-10T02:16:38.024Z,1
2023-01-10T02:18:21.313Z,2
2023-01-10T02:21:47.786Z,2
2023-01-10T02:23:31.206Z,1
2023-01-10T02:25:14.588Z,2
2023-01-10T02:26:57.977Z,1
2023-01-10T02:28:41.384Z,2
2023-01-10T02:30:24.763Z,1
2023-01-10T02:32:08.187Z,2
2023-01-10T02:33:51.585Z,2
2023-01-10T02:35:34.964Z,2
2023-01-10T02:40:44.209Z,2
2023-01-10T02:42:27.591Z,2
2023-01-10T02:44:11.023Z,2
2023-01-10T02:45:54.387Z,2
2023-01-10T02:47:37.788Z,2
2023-01-10T02:49:21.183Z,2
2023-01-10T02:51:04.743Z,1
2023-01-10T02:52:47.976Z,1
2023-01-10T02:54:31.390Z,2
2023-01-10T02:56:15.068Z,2
2023-01-10T02:57:58.464Z,2
2023-01-10T02:59:41.867Z,1
2023-01-10T03:01:25.252Z,2
2023-01-10T03:03:08.648Z,1
2023-01-10T03:04:52.047Z,2
2023-01-10T03:06:35.602Z,2
2023-01-10T03:08:18.854Z,2
2023-01-10T03:10:02.233Z,2
2023-01-10T03:13:28.724Z,1
2023-01-10T03:15:12.155Z,2
2023-01-10T03:16:55.525Z,1
2023-01-10T03:18:38.982Z,1
2023-01-10T03:20:22.325Z,2
2023-01-10T03:22:05.692Z,2
2023-01-10T03:23:49.094Z,1
2023-01-10T03:25:32.490Z,2
2023-01-10T03:30:41.722Z,2
2023-01-10T03:32:25.126Z,2
2023-01-10T03:34:08.523Z,2
2023-01-10T03:35:51.916Z,2
2023-01-10T03:37:35.329Z,2
2023-01-10T03:39:18.779Z,2
2023-01-10T03:41:02.151Z,2
2023-01-10T03:42:45.488Z,2
2023-01-10T03:47:54.748Z,2
2023-01-10T03:49:38.165Z,1
2023-01-10T03:51:21.536Z,2
2023-01-10T03:53:04.925Z,1
2023-01-10T03:54:48.330Z,2
2023-01-10T03:56:31.727Z,2
2023-01-10T03:58:15.137Z,2
2023-01-10T03:59:58.510Z,1
2023-01-10T04:05:07.802Z,2
2023-01-10T04:06:51.169Z,2
2023-01-10T04:08:34.552Z,2
2023-01-10T04:10:17.952Z,1
2023-01-10T04:12:01.363Z,2
2023-01-10T04:13:44.746Z,1
2023-01-10T04:15:28.149Z,1
2023-01-10T04:17:11.514Z,2
2023-01-10T04:22:20.796Z,2
2023-01-10T04:24:04.171Z,2
2023-01-10T04:25:47.575Z,2
2023-01-10T04:27:30.964Z,2
2023-01-10T04:29:14.379Z,2
2023-01-10T04:30:57.761Z,1
2023-01-10T04:32:41.167Z,2
2023-01-10T04:34:24.585Z,2
2023-01-10T04:39:33.789Z,2
2023-01-10T04:41:17.182Z,1
2023-01-10T04:43:00.573Z,1
2023-01-10T04:44:43.999Z,2
2023-01-10T04:46:27.396Z,2
2023-01-10T04:48:10.767Z,2
2023-01-10T04:49:54.158Z,2
2023-01-10T04:51:37.607Z,2
2023-01-10T04:53:20.985Z,2
2023-01-10T04:56:47.451Z,2
2023-01-10T04:58:30.822Z,2
2023-01-10T05:00:14.234Z,2
2023-01-10T05:01:57.615Z,2
2023-01-10T05:03:41.008Z,2
2023-01-10T05:05:24.436Z,2
2023-01-10T05:07:07.803Z,2
2023-01-10T05:08:51.215Z,2
2023-01-10T05:10:34.624Z,2
2023-01-10T05:14:01.090Z,1
2023-01-10T05:15:44.493Z,2
2023-01-10T05:17:27.852Z,1
2023-01-10T05:19:11.272Z,2
2023-01-10T05:20:54.668Z,1
2023-01-10T05:22:38.104Z,1
2023-01-10T05:24:21.456Z,2
2023-01-10T05:26:04.848Z,1
2023-01-10T05:27:48.240Z,2
2023-01-10T05:29:31.937Z,2
2023-01-10T05:31:15.472Z,1
2023-01-10T05:32:58.751Z,1
2023-01-10T05:34:42.133Z,2
2023-01-10T05:36:25.525Z,2
2023-01-10T05:38:08.955Z,1
2023-01-10T05:39:52.357Z,2
2023-01-10T05:41:35.742Z,2
2023-01-10T05:43:19.125Z,2
2023-01-10T05:46:45.614Z,2
2023-01-10T05:48:29.007Z,2
2023-01-10T05:50:12.464Z,2
2023-01-10T05:51:55.780Z,1
2023-01-10T05:53:39.169Z,2
2023-01-10T05:55:22.612Z,2
2023-01-10T05:57:05.974Z,1
2023-01-10T05:58:49.358Z,2
2023-01-10T06:03:58.661Z,1
2023-01-10T06:05:42.031Z,1
2023-01-10T06:07:25.402Z,1
2023-01-10T06:09:08.778Z,2
2023-01-10T06:10:52.300Z,2
2023-01-10T06:12:35.603Z,1
2023-01-10T06:14:18.970Z,2
2023-01-10T06:16:02.369Z,1
2023-01-10T06:17:45.891Z,2
2023-01-10T06:21:12.265Z,1
2023-01-10T06:22:55.643Z,1
2023-01-10T06:24:39.078Z,2
2023-01-10T06:26:22.450Z,2
2023-01-10T06:28:05.846Z,2
2023-01-10T06:29:49.267Z,1
2023-01-10T06:31:32.771Z,2
2023-01-10T06:33:16.120Z,1
2023-01-10T06:38:25.355Z,2
2023-01-10T06:40:08.782Z,1
2023-01-10T06:41:52.125Z,1
2023-01-10T06:43:35.593Z,3
2023-01-10T06:45:18.977Z,2
2023-01-10T06:47:02.340Z,2
2023-01-10T06:48:45.717Z,2
2023-01-10T06:50:29.026Z,2
2023-01-10T06:55:38.421Z,1
2023-01-10T06:57:21.705Z,1
2023-01-10T06:59:05.065Z,1
2023-01-10T07:00:48.520Z,1
2023-01-10T07:02:31.873Z,1
2023-01-10T07:04:15.374Z,1
2023-01-10T07:05:58.756Z,1
2023-01-10T07:07:42.105Z,1
2023-01-10T07:11:08.519Z,2
2023-01-10T07:12:51.938Z,2
2023-01-10T07:14:35.327Z,1
2023-01-10T07:16:18.741Z,0
2023-01-10T07:18:02.116Z,1
2023-01-10T07:19:45.515Z,2
2023-01-10T07:21:28.951Z,2
2023-01-10T07:23:12.309Z,1
2023-01-10T07:26:38.757Z,1
2023-01-10T07:28:22.170Z,1
2023-01-10T07:30:05.596Z,1
2023-01-10T07:31:48.950Z,1
2023-01-10T07:33:32.359Z,1
2023-01-10T07:35:15.765Z,1
2023-01-10T07:36:59.143Z,2
2023-01-10T07:38:42.548Z,1
2023-01-10T07:42:09.038Z,0
2023-01-10T07:43:52.513Z,1
2023-01-10T07:45:35.849Z,1
2023-01-10T07:47:19.313Z,1
2023-01-10T07:49:02.649Z,0
2023-01-10T07:50:46.049Z,1
2023-01-10T07:52:29.378Z,1
2023-01-10T07:54:12.809Z,0
2023-01-10T07:59:22.034Z,16
2023-01-10T08:01:05.489Z,16
2023-01-10T08:02:48.819Z,17
2023-01-10T08:04:32.220Z,19
2023-01-10T08:06:15.611Z,17
2023-01-10T08:07:59.060Z,25
2023-01-10T08:09:42.448Z,25
2023-01-10T08:11:25.849Z,26
2023-01-10T08:13:09.563Z,29
2023-01-10T08:14:52.949Z,30
2023-01-10T08:16:36.402Z,33
2023-01-10T08:18:19.731Z,32
2023-01-10T08:20:03.096Z,33
2023-01-10T08:21:46.491Z,33
2023-01-10T08:23:29.966Z,35
2023-01-10T08:25:13.265Z,37
2023-01-10T08:28:39.770Z,37
2023-01-10T08:30:23.160Z,36
2023-01-10T08:32:06.597Z,34
2023-01-10T08:33:49.935Z,35
2023-01-10T08:35:33.330Z,34
2023-01-10T08:37:16.724Z,28
2023-01-10T08:39:00.122Z,27
2023-01-10T08:40:43.508Z,27
2023-01-10T08:44:09.982Z,30
2023-01-10T08:45:53.379Z,32
2023-01-10T08:47:36.798Z,32
2023-01-10T08:49:20.181Z,29
2023-01-10T08:51:03.574Z,28
2023-01-10T08:52:46.978Z,30
2023-01-10T08:54:30.358Z,32
2023-01-10T08:56:13.774Z,37
2023-01-10T08:59:40.260Z,48
2023-01-10T09:01:23.639Z,54
2023-01-10T09:03:07.036Z,57
2023-01-10T09:04:50.508Z,55
2023-01-10T09:06:33.818Z,58
2023-01-10T09:08:17.394Z,54
2023-01-10T09:10:00.713Z,50
2023-01-10T09:11:44.006Z,46
2023-01-10T09:15:10.511Z,33
2023-01-10T09:16:53.897Z,35
2023-01-10T09:18:39.275Z,32
2023-01-10T09:20:20.683Z,177
2023-01-10T09:22:04.095Z,84
2023-01-10T09:24:16.821Z,43
2023-01-10T09:25:31.389Z,48
2023-01-10T09:27:14.384Z,53
2023-01-10T09:30:40.772Z,49
2023-01-10T09:32:24.152Z,45
2023-01-10T09:34:07.617Z,44
2023-01-10T09:35:50.973Z,49
2023-01-10T09:37:34.319Z,59
2023-01-10T09:39:17.717Z,71
2023-01-10T09:41:01.118Z,75
2023-01-10T09:42:44.601Z,77
2023-01-10T09:46:11.082Z,68
2023-01-10T09:47:54.440Z,64
2023-01-10T09:49:37.876Z,59
2023-01-10T09:51:21.203Z,63
2023-01-10T09:53:04.603Z,65
2023-01-10T09:54:48.106Z,65
2023-01-10T09:56:31.510Z,64
2023-01-10T09:58:14.919Z,65
2023-01-10T09:59:58.157Z,68
2023-01-10T10:03:24.625Z,78
2023-01-10T10:05:08.018Z,69
2023-01-10T10:06:51.422Z,62
2023-01-10T10:08:34.824Z,54
2023-01-10T10:10:18.206Z,51
2023-01-10T10:12:01.601Z,64
2023-01-10T10:13:44.992Z,85
2023-01-10T10:15:28.398Z,100
2023-01-10T10:18:54.895Z,104
2023-01-10T10:20:38.289Z,103
2023-01-10T10:22:21.679Z,126
2023-01-10T10:24:05.066Z,105
2023-01-10T10:25:48.440Z,94
2023-01-10T10:27:31.873Z,88
2023-01-10T10:29:15.257Z,82
2023-01-10T10:30:58.635Z,83
2023-01-10T10:32:42.355Z,82
2023-01-10T10:34:25.738Z,76
2023-01-10T10:36:09.147Z,80
2023-01-10T10:37:52.538Z,85
2023-01-10T10:39:35.958Z,89
2023-01-10T10:41:19.358Z,92
2023-01-10T10:43:02.752Z,96
2023-01-10T10:44:46.123Z,103
2023-01-10T10:48:12.620Z,96
2023-01-10T10:49:56.022Z,92
2023-01-10T10:51:39.438Z,80
2023-01-10T10:53:22.969Z,74
2023-01-10T10:55:06.264Z,68
2023-01-10T10:56:49.740Z,63
2023-01-10T10:58:32.979Z,58
2023-01-10T11:00:16.371Z,61
2023-01-10T11:02:00.090Z,64
2023-01-10T11:03:43.470Z,70
2023-01-10T11:05:26.881Z,74
2023-01-10T11:07:10.240Z,84
2023-01-10T11:08:53.654Z,98
2023-01-10T11:10:37.068Z,103
2023-01-10T11:12:20.485Z,112
2023-01-10T11:14:03.845Z,123
2023-01-10T11:17:30.314Z,101
2023-01-10T11:19:13.759Z,106
2023-01-10T11:20:57.100Z,108
2023-01-10T11:22:40.498Z,100
2023-01-10T11:24:23.892Z,87
2023-01-10T11:26:07.291Z,84
2023-01-10T11:27:50.688Z,85
2023-01-10T11:29:34.098Z,85
2023-01-10T11:33:00.573Z,81
2023-01-10T11:34:43.961Z,68
2023-01-10T11:36:27.356Z,67
2023-01-10T11:38:10.760Z,68
2023-01-10T11:39:54.157Z,77
2023-01-10T11:41:37.545Z,76
2023-01-10T11:43:20.952Z,63
2023-01-10T11:45:04.363Z,55
2023-01-10T11:46:48.141Z,66
2023-01-10T11:48:31.581Z,73
2023-01-10T11:50:14.823Z,77
2023-01-10T11:51:58.223Z,85
2023-01-10T11:53:41.632Z,92
2023-01-10T11:55:25.019Z,102
2023-01-10T11:57:08.409Z,98
2023-01-10T11:58:51.815Z,81
2023-01-10T12:02:18.293Z,70
2023-01-10T12:04:01.680Z,88
2023-01-10T12:05:45.071Z,110
2023-01-10T12:07:28.466Z,118
2023-01-10T12:09:11.873Z,124
2023-01-10T12:10:55.258Z,114
2023-01-10T12:12:38.657Z,107
2023-01-10T12:14:22.072Z,102
2023-01-10T12:17:48.528Z,110
2023-01-10T12:19:31.937Z,111
2023-01-10T12:21:15.360Z,106
2023-01-10T12:22:58.731Z,92
2023-01-10T12:24:42.141Z,84
2023-01-10T12:26:25.511Z,87
2023-01-10T12:28:08.903Z,82
2023-01-10T12:29:52.302Z,79
2023-01-10T12:35:02.195Z,76
2023-01-10T12:36:45.586Z,75
2023-01-10T12:38:28.964Z,72
2023-01-10T12:40:12.374Z,69
2023-01-10T12:41:55.769Z,68
2023-01-10T12:43:39.178Z,64
2023-01-10T12:45:22.564Z,55
2023-01-10T12:48:49.032Z,59
2023-01-10T12:50:32.434Z,66
2023-01-10T12:52:15.821Z,75
2023-01-10T12:53:59.229Z,85
2023-01-10T12:55:42.627Z,95
2023-01-10T12:57:26.011Z,99
2023-01-10T12:59:09.410Z,100
2023-01-10T13:00:52.809Z,97
2023-01-10T13:04:19.271Z,83
2023-01-10T13:06:02.682Z,73
2023-01-10T13:07:46.067Z,59
2023-01-10T13:09:29.461Z,55
2023-01-10T13:11:12.851Z,55
2023-01-10T13:12:56.270Z,53
2023-01-10T13:14:39.657Z,53
2023-01-10T13:16:23.048Z,54
2023-01-10T13:19:49.529Z,50
2023-01-10T13:21:32.930Z,42
2023-01-10T13:23:16.322Z,36
2023-01-10T13:24:59.709Z,42
2023-01-10T13:26:43.120Z,46
2023-01-10T13:28:26.528Z,49
2023-01-10T13:30:09.902Z,45
2023-01-10T13:31:53.370Z,44
2023-01-10T13:35:19.811Z,38
2023-01-10T13:37:03.173Z,35
2023-01-10T13:38:46.560Z,33
2023-01-10T13:40:29.955Z,31
2023-01-10T13:42:13.358Z,30
2023-01-10T13:43:56.750Z,29
2023-01-10T13:45:40.372Z,30
2023-01-10T13:47:23.552Z,33
2023-01-10T13:52:32.796Z,33
2023-01-10T13:54:16.170Z,39
2023-01-10T13:55:59.582Z,36
2023-01-10T13:57:42.967Z,30
2023-01-10T13:59:26.358Z,30
2023-01-10T14:01:09.753Z,29
2023-01-10T14:02:53.171Z,28
2023-01-10T14:04:36.560Z,26
2023-01-10T14:08:03.041Z,33
2023-01-10T14:09:46.422Z,28
2023-01-10T14:11:29.814Z,31
2023-01-10T14:13:13.230Z,34
2023-01-10T14:14:56.593Z,39
2023-01-10T14:18:23.391Z,48
2023-01-10T14:20:06.908Z,57
2023-01-10T14:25:16.073Z,70
2023-01-10T14:26:59.441Z,70
2023-01-10T14:28:42.836Z,77
2023-01-10T14:30:26.224Z,78
2023-01-10T14:32:09.621Z,75
2023-01-10T14:33:53.028Z,82
2023-01-10T14:35:36.427Z,86
2023-01-10T14:37:19.826Z,76
2023-01-10T14:40:46.286Z,73
2023-01-10T14:42:29.677Z,70
2023-01-10T14:44:13.089Z,66
2023-01-10T14:45:56.465Z,62
2023-01-10T14:47:39.872Z,57
2023-01-10T14:49:23.253Z,53
2023-01-10T14:51:06.674Z,50
2023-01-10T14:52:50.060Z,49
2023-01-10T14:57:59.294Z,40
2023-01-10T14:59:42.711Z,37
2023-01-10T15:01:26.098Z,33
2023-01-10T15:03:09.485Z,32
2023-01-10T15:04:52.895Z,30
2023-01-10T15:06:36.274Z,28
2023-01-10T15:08:19.676Z,68
2023-01-10T15:10:03.091Z,66
2023-01-10T15:15:12.360Z,58
2023-01-10T15:16:55.706Z,56
2023-01-10T15:18:39.100Z,53
2023-01-10T15:20:22.500Z,49
2023-01-10T15:22:05.900Z,44
2023-01-10T15:23:49.298Z,42
2023-01-10T15:25:32.693Z,39
2023-01-10T15:27:16.093Z,35
2023-01-10T15:32:25.358Z,22
2023-01-10T15:34:08.859Z,18
2023-01-10T15:35:52.117Z,15
2023-01-10T15:37:35.521Z,12
2023-01-10T15:39:18.924Z,11
2023-01-10T15:41:02.343Z,10
2023-01-10T15:42:45.687Z,9
2023-01-10T15:44:29.104Z,8
2023-01-10T15:47:55.622Z,7
2023-01-10T15:49:39.124Z,6
2023-01-10T15:51:22.371Z,5
2023-01-10T15:53:05.758Z,5
2023-01-10T15:54:49.163Z,4
2023-01-10T15:56:32.556Z,10
2023-01-10T15:58:15.937Z,9
2023-01-10T15:59:59.350Z,8
2023-01-10T16:03:25.859Z,8
2023-01-10T16:05:09.206Z,8
2023-01-10T16:06:52.655Z,8
2023-01-10T16:08:36.058Z,7
2023-01-10T16:10:19.395Z,7
2023-01-10T16:12:02.801Z,7
2023-01-10T16:13:46.196Z,7
2023-01-10T16:15:29.641Z,7
2023-01-10T16:18:56.091Z,8
2023-01-10T16:20:39.531Z,8
2023-01-10T16:22:22.857Z,5
2023-01-10T16:24:06.245Z,7
2023-01-10T16:25:49.643Z,4
2023-01-10T16:27:33.065Z,7
2023-01-10T16:29:16.440Z,11
2023-01-10T16:30:59.852Z,13
2023-01-10T16:32:43.247Z,6
2023-01-10T16:34:26.952Z,5
2023-01-10T16:36:10.334Z,8
2023-01-10T16:37:53.735Z,6
2023-01-10T16:39:37.134Z,8
2023-01-10T16:41:20.527Z,8
2023-01-10T16:43:03.917Z,8
2023-01-10T16:44:47.330Z,7
2023-01-10T16:46:30.714Z,7
2023-01-10T16:48:14.127Z,8
2023-01-10T16:49:57.804Z,7
2023-01-10T16:51:41.220Z,8
2023-01-10T16:53:24.609Z,48
2023-01-10T16:55:08.030Z,31
2023-01-10T16:56:51.405Z,25
2023-01-10T16:58:34.814Z,9
2023-01-10T17:00:18.193Z,8
2023-01-10T17:02:01.588Z,9
2023-01-10T17:05:28.074Z,9
2023-01-10T17:07:11.454Z,8
2023-01-10T17:08:54.851Z,9
2023-01-10T17:10:38.244Z,9
2023-01-10T17:12:21.646Z,9
2023-01-10T17:14:05.044Z,9
2023-01-10T17:15:48.444Z,9
2023-01-10T17:17:31.827Z,9
2023-01-10T17:20:58.302Z,13
2023-01-10T17:22:41.708Z,9
2023-01-10T17:24:25.108Z,8
2023-01-10T17:26:08.502Z,9
2023-01-10T17:27:51.910Z,9
2023-01-10T17:29:35.294Z,9
2023-01-10T17:31:18.692Z,10
2023-01-10T17:33:02.072Z,10
2023-01-10T17:38:11.328Z,10
2023-01-10T17:39:54.730Z,10
2023-01-10T17:41:38.130Z,9
2023-01-10T17:43:21.511Z,10
2023-01-10T17:45:04.904Z,9
2023-01-10T17:46:48.297Z,9
2023-01-10T17:48:31.688Z,9
2023-01-10T17:50:15.099Z,10
2023-01-10T17:53:41.582Z,9
2023-01-10T17:55:24.970Z,10
2023-01-10T17:57:08.363Z,10
2023-01-10T17:58:51.772Z,10
2023-01-10T18:00:35.172Z,10
2023-01-10T18:02:18.558Z,10
2023-01-10T18:04:01.952Z,10
2023-01-10T18:05:45.355Z,10
2023-01-10T18:10:54.586Z,9
2023-01-10T18:12:37.981Z,9
2023-01-10T18:14:21.388Z,9
2023-01-10T18:16:04.779Z,9
2023-01-10T18:17:48.174Z,8
2023-01-10T18:19:31.586Z,8
2023-01-10T18:21:14.980Z,9
2023-01-10T18:22:58.379Z,9
2023-01-10T18:26:24.858Z,9
2023-01-10T18:28:08.245Z,8
2023-01-10T18:29:51.632Z,9
2023-01-10T18:31:35.049Z,8
2023-01-10T18:33:18.431Z,8
2023-01-10T18:35:01.844Z,8
2023-01-10T18:36:45.216Z,9
2023-01-10T18:38:28.620Z,9
2023-01-10T18:41:55.114Z,8
2023-01-10T18:43:38.496Z,8
2023-01-10T18:47:05.303Z,8
2023-01-10T18:48:48.689Z,8
2023-01-10T18:50:32.089Z,9
2023-01-10T18:52:15.473Z,9
2023-01-10T18:53:58.870Z,9
2023-01-10T18:57:25.349Z,9
2023-01-10T18:59:08.779Z,7
2023-01-10T19:00:52.146Z,8
2023-01-10T19:02:35.524Z,9
2023-01-10T19:04:18.929Z,8
2023-01-10T19:06:02.326Z,9
2023-01-10T19:07:45.728Z,8
2023-01-10T19:09:29.132Z,8
2023-01-10T19:12:55.601Z,8
2023-01-10T19:14:38.989Z,8
2023-01-10T19:16:22.388Z,8
2023-01-10T19:18:05.788Z,8
2023-01-10T19:19:49.186Z,8
2023-01-10T19:21:32.604Z,8
2023-01-10T19:23:15.987Z,9
2023-01-10T19:24:59.373Z,8
2023-01-10T19:28:25.847Z,8
2023-01-10T19:30:09.239Z,9
2023-01-10T19:31:52.644Z,8
2023-01-10T19:33:36.036Z,9
2023-01-10T19:35:19.445Z,515
2023-01-10T19:37:02.837Z,510
2023-01-10T19:38:46.217Z,507
2023-01-10T19:40:29.628Z,504
2023-01-10T19:43:56.100Z,8
2023-01-10T19:45:39.511Z,9
2023-01-10T19:47:22.902Z,9
2023-01-10T19:49:06.279Z,8
2023-01-10T19:50:49.691Z,8
2023-01-10T19:52:33.090Z,8
2023-01-10T19:54:16.475Z,8
2023-01-10T19:55:59.863Z,8
2023-01-10T19:59:26.340Z,8
2023-01-10T20:01:09.743Z,9
2023-01-10T20:02:53.144Z,8
2023-01-10T20:04:36.532Z,8
2023-01-10T20:06:19.925Z,7
2023-01-10T20:08:03.327Z,8
2023-01-10T20:09:46.725Z,8
2023-01-10T20:11:30.118Z,8
2023-01-10T20:16:39.358Z,8
2023-01-10T20:18:22.750Z,8
2023-01-10T20:20:06.151Z,7
2023-01-10T20:21:49.565Z,8
2023-01-10T20:23:32.945Z,8
2023-01-10T20:25:16.353Z,7
2023-01-10T20:26:59.746Z,15
2023-01-10T20:28:43.153Z,13
2023-01-10T20:32:09.612Z,9
2023-01-10T20:33:53.003Z,8
2023-01-10T20:35:36.402Z,8
2023-01-10T20:37:19.795Z,8
2023-01-10T20:39:03.194Z,8
2023-01-10T20:40:46.590Z,9
2023-01-10T20:42:29.994Z,9
2023-01-10T20:44:13.399Z,8
2023-01-10T20:49:22.628Z,8
2023-01-10T20:51:06.020Z,8
2023-01-10T20:52:49.476Z,9
2023-01-10T20:54:32.802Z,8
2023-01-10T20:56:16.210Z,8
2023-01-10T20:57:59.606Z,8
2023-01-10T20:59:42.997Z,8
2023-01-10T21:01:26.398Z,9
2023-01-10T21:04:52.872Z,8
2023-01-10T21:06:36.258Z,8
2023-01-10T21:08:19.657Z,8
2023-01-10T21:10:03.067Z,9
2023-01-10T21:11:46.446Z,8
2023-01-10T21:13:29.909Z,8
2023-01-10T21:15:13.242Z,8
2023-01-10T21:16:56.643Z,9
2023-01-10T21:18:40.021Z,8
2023-01-10T21:22:06.508Z,9
2023-01-10T21:23:49.899Z,7
2023-01-10T21:25:33.311Z,8
2023-01-10T21:27:16.709Z,8
2023-01-10T21:29:00.093Z,8
2023-01-10T21:30:43.486Z,8
2023-01-10T21:32:26.899Z,8
2023-01-10T21:34:10.387Z,9
2023-01-10T21:35:53.684Z,8
2023-01-10T21:39:20.153Z,8
2023-01-10T21:41:03.545Z,8
2023-01-10T21:42:46.959Z,8
2023-01-10T21:44:30.374Z,8
2023-01-10T21:46:13.733Z,9
2023-01-10T21:47:57.129Z,9
2023-01-10T21:49:40.519Z,8
2023-01-10T21:51:23.938Z,8
2023-01-10T21:53:07.354Z,8
2023-01-10T21:56:33.785Z,7
2023-01-10T21:58:17.199Z,6
2023-01-10T22:00:00.590Z,7
2023-01-10T22:01:44.038Z,12
2023-01-10T22:03:27.385Z,13
2023-01-10T22:05:10.771Z,12
2023-01-10T22:06:54.229Z,13
2023-01-10T22:08:37.559Z,13
2023-01-10T22:10:21.013Z,13
2023-01-10T22:13:47.451Z,13
2023-01-10T22:15:30.819Z,13
2023-01-10T22:17:14.212Z,12
2023-01-10T22:18:57.643Z,12
2023-01-10T22:20:41.010Z,12
2023-01-10T22:22:24.595Z,12
2023-01-10T22:24:07.799Z,13
2023-01-10T22:25:51.209Z,13
2023-01-10T22:31:00.518Z,13
2023-01-10T22:32:43.843Z,13
2023-01-10T22:34:27.234Z,12
2023-01-10T22:36:10.636Z,1
2023-01-10T22:37:54.029Z,1
2023-01-10T22:39:37.437Z,1
2023-01-10T22:41:20.864Z,1
2023-01-10T22:43:04.272Z,0
2023-01-10T22:44:47.616Z,2
2023-01-10T22:49:56.856Z,1
2023-01-10T22:51:40.242Z,1
2023-01-10T22:53:23.668Z,0
2023-01-10T22:55:07.042Z,1
2023-01-10T22:56:50.429Z,1
2023-01-10T22:58:33.870Z,1
2023-01-10T23:00:17.254Z,1
2023-01-10T23:02:00.635Z,2
2023-01-10T23:03:44.017Z,1
2023-01-10T23:05:27.744Z,1
2023-01-10T23:07:11.108Z,1
2023-01-10T23:08:54.510Z,1
2023-01-10T23:10:37.921Z,1
2023-01-10T23:12:21.301Z,1
2023-01-10T23:14:04.712Z,1
2023-01-10T23:15:48.104Z,0
2023-01-10T23:17:31.504Z,0
2023-01-10T23:19:14.894Z,1
2023-01-10T23:22:41.444Z,1
2023-01-10T23:24:24.770Z,1
2023-01-10T23:26:08.149Z,0
2023-01-10T23:27:51.542Z,1
2023-01-10T23:29:34.968Z,1
2023-01-10T23:31:18.348Z,1
2023-01-10T23:33:01.745Z,1
2023-01-10T23:34:45.156Z,1
2023-01-10T23:36:28.537Z,1
2023-01-10T23:39:54.994Z,1
2023-01-10T23:41:38.402Z,1
2023-01-10T23:43:21.790Z,1
2023-01-10T23:45:05.200Z,1
2023-01-10T23:46:48.598Z,1
2023-01-10T23:48:32.013Z,1
2023-01-10T23:50:15.398Z,1
2023-01-10T23:51:58.779Z,1
2023-01-10T23:53:42.177Z,1
2023-01-10T23:57:08.656Z,1
2023-01-10T23:58:52.040Z,1
